sensor_id;sensor_type;location;lat;lon;timestamp;P1;durP1;ratioP1;P2;durP2;ratioP2
9547;SDS011;4812;51.992;8.648;2023-03-01T00:01:53;15.97;;;10.17;;
9547;SDS011;4812;51.992;8.648;2023-03-01T00:07:02;17.47;;;10.63;;
9547;SDS011;4812;51.992;8.648;2023-03-01T00:09:30;14.57;;;9.40;;
9547;SDS011;4812;51.992;8.648;2023-03-01T00:14:52;11.90;;;8.90;;
9547;SDS011;4812;51.992;8.648;2023-03-01T00:17:19;10.93;;;8.90;;
9547;SDS011;4812;51.992;8.648;2023-03-01T00:19:47;11.57;;;9.17;;
9547;SDS011;4812;51.992;8.648;2023-03-01T00:22:16;12.87;;;8.47;;
9547;SDS011;4812;51.992;8.648;2023-03-01T00:27:32;12.93;;;8.63;;
9547;SDS011;4812;51.992;8.648;2023-03-01T00:29:59;11.83;;;8.43;;
9547;SDS011;4812;51.992;8.648;2023-03-01T00:32:27;12.37;;;9.13;;
9547;SDS011;4812;51.992;8.648;2023-03-01T00:34:55;13.03;;;9.07;;
9547;SDS011;4812;51.992;8.648;2023-03-01T00:37:24;12.10;;;8.77;;
9547;SDS011;4812;51.992;8.648;2023-03-01T00:39:51;11.60;;;8.80;;
9547;SDS011;4812;51.992;8.648;2023-03-01T00:42:20;13.07;;;9.13;;
9547;SDS011;4812;51.992;8.648;2023-03-01T00:47:50;10.93;;;8.97;;
9547;SDS011;4812;51.992;8.648;2023-03-01T00:50:18;15.10;;;8.30;;
9547;SDS011;4812;51.992;8.648;2023-03-01T00:52:50;16.43;;;9.27;;
9547;SDS011;4812;51.992;8.648;2023-03-01T00:55:20;15.53;;;10.20;;
9547;SDS011;4812;51.992;8.648;2023-03-01T00:57:48;13.43;;;10.03;;
9547;SDS011;4812;51.992;8.648;2023-03-01T01:00:15;16.47;;;9.97;;
9547;SDS011;4812;51.992;8.648;2023-03-01T01:02:43;12.90;;;8.30;;
9547;SDS011;4812;51.992;8.648;2023-03-01T01:05:11;12.17;;;8.50;;
9547;SDS011;4812;51.992;8.648;2023-03-01T01:07:39;11.30;;;8.37;;
9547;SDS011;4812;51.992;8.648;2023-03-01T01:10:09;14.03;;;8.90;;
9547;SDS011;4812;51.992;8.648;2023-03-01T01:12:43;14.23;;;9.13;;
9547;SDS011;4812;51.992;8.648;2023-03-01T01:15:11;10.80;;;8.77;;
9547;SDS011;4812;51.992;8.648;2023-03-01T01:17:42;11.73;;;8.37;;
9547;SDS011;4812;51.992;8.648;2023-03-01T01:20:10;12.03;;;9.20;;
9547;SDS011;4812;51.992;8.648;2023-03-01T01:22:38;10.70;;;8.47;;
9547;SDS011;4812;51.992;8.648;2023-03-01T01:25:08;16.23;;;8.93;;
9547;SDS011;4812;51.992;8.648;2023-03-01T01:27:36;13.47;;;8.67;;
9547;SDS011;4812;51.992;8.648;2023-03-01T01:30:04;9.47;;;8.17;;
9547;SDS011;4812;51.992;8.648;2023-03-01T01:32:32;13.73;;;8.67;;
9547;SDS011;4812;51.992;8.648;2023-03-01T01:35:00;11.50;;;8.33;;
9547;SDS011;4812;51.992;8.648;2023-03-01T01:40:28;10.73;;;7.93;;
9547;SDS011;4812;51.992;8.648;2023-03-01T01:42:55;11.63;;;8.47;;
9547;SDS011;4812;51.992;8.648;2023-03-01T01:45:53;9.80;;;8.27;;
9547;SDS011;4812;51.992;8.648;2023-03-01T01:48:23;12.13;;;8.67;;
9547;SDS011;4812;51.992;8.648;2023-03-01T01:51:02;13.50;;;9.00;;
9547;SDS011;4812;51.992;8.648;2023-03-01T01:53:30;13.60;;;9.23;;
9547;SDS011;4812;51.992;8.648;2023-03-01T01:56:00;12.87;;;8.43;;
9547;SDS011;4812;51.992;8.648;2023-03-01T01:58:28;10.83;;;8.47;;
9547;SDS011;4812;51.992;8.648;2023-03-01T02:00:57;13.03;;;8.73;;
9547;SDS011;4812;51.992;8.648;2023-03-01T02:03:27;14.07;;;8.93;;
9547;SDS011;4812;51.992;8.648;2023-03-01T02:06:01;10.87;;;7.87;;
9547;SDS011;4812;51.992;8.648;2023-03-01T02:08:31;9.87;;;8.37;;
9547;SDS011;4812;51.992;8.648;2023-03-01T02:11:03;11.10;;;8.67;;
9547;SDS011;4812;51.992;8.648;2023-03-01T02:13:30;8.73;;;7.77;;
9547;SDS011;4812;51.992;8.648;2023-03-01T02:15:58;12.37;;;8.40;;
9547;SDS011;4812;51.992;8.648;2023-03-01T02:18:29;9.90;;;8.67;;
9547;SDS011;4812;51.992;8.648;2023-03-01T02:21:03;11.40;;;8.50;;
9547;SDS011;4812;51.992;8.648;2023-03-01T02:26:36;13.70;;;8.53;;
9547;SDS011;4812;51.992;8.648;2023-03-01T02:29:09;8.83;;;7.90;;
9547;SDS011;4812;51.992;8.648;2023-03-01T02:31:36;8.50;;;7.60;;
9547;SDS011;4812;51.992;8.648;2023-03-01T02:37:14;9.43;;;7.83;;
9547;SDS011;4812;51.992;8.648;2023-03-01T02:39:47;10.87;;;8.30;;
9547;SDS011;4812;51.992;8.648;2023-03-01T02:42:17;8.63;;;7.70;;
9547;SDS011;4812;51.992;8.648;2023-03-01T02:44:53;11.23;;;7.90;;
9547;SDS011;4812;51.992;8.648;2023-03-01T02:47:20;8.50;;;6.87;;
9547;SDS011;4812;51.992;8.648;2023-03-01T02:49:48;9.87;;;8.13;;
9547;SDS011;4812;51.992;8.648;2023-03-01T02:52:22;10.00;;;7.83;;
9547;SDS011;4812;51.992;8.648;2023-03-01T02:54:56;10.07;;;7.60;;
9547;SDS011;4812;51.992;8.648;2023-03-01T02:57:26;8.50;;;7.60;;
9547;SDS011;4812;51.992;8.648;2023-03-01T02:59:56;8.47;;;7.53;;
9547;SDS011;4812;51.992;8.648;2023-03-01T03:02:26;11.47;;;8.10;;
9547;SDS011;4812;51.992;8.648;2023-03-01T03:08:19;9.97;;;7.80;;
9547;SDS011;4812;51.992;8.648;2023-03-01T03:10:50;12.37;;;8.03;;
9547;SDS011;4812;51.992;8.648;2023-03-01T03:13:19;9.83;;;7.77;;
9547;SDS011;4812;51.992;8.648;2023-03-01T03:15:50;11.60;;;8.00;;
9547;SDS011;4812;51.992;8.648;2023-03-01T03:18:17;9.57;;;7.50;;
9547;SDS011;4812;51.992;8.648;2023-03-01T03:20:45;9.93;;;8.27;;
9547;SDS011;4812;51.992;8.648;2023-03-01T03:23:13;10.60;;;8.03;;
9547;SDS011;4812;51.992;8.648;2023-03-01T03:25:40;8.67;;;7.80;;
9547;SDS011;4812;51.992;8.648;2023-03-01T03:28:07;11.07;;;7.87;;
9547;SDS011;4812;51.992;8.648;2023-03-01T03:30:37;14.33;;;8.80;;
9547;SDS011;4812;51.992;8.648;2023-03-01T03:33:08;11.53;;;7.63;;
9547;SDS011;4812;51.992;8.648;2023-03-01T03:35:39;10.33;;;8.30;;
9547;SDS011;4812;51.992;8.648;2023-03-01T03:38:09;8.83;;;7.70;;
9547;SDS011;4812;51.992;8.648;2023-03-01T03:43:40;9.37;;;7.97;;
9547;SDS011;4812;51.992;8.648;2023-03-01T03:46:09;12.00;;;8.80;;
9547;SDS011;4812;51.992;8.648;2023-03-01T03:48:39;11.57;;;8.27;;
9547;SDS011;4812;51.992;8.648;2023-03-01T03:51:09;10.80;;;8.47;;
9547;SDS011;4812;51.992;8.648;2023-03-01T03:53:37;10.70;;;8.40;;
9547;SDS011;4812;51.992;8.648;2023-03-01T03:56:05;12.90;;;9.30;;
9547;SDS011;4812;51.992;8.648;2023-03-01T03:58:33;11.43;;;9.37;;
9547;SDS011;4812;51.992;8.648;2023-03-01T04:01:01;11.77;;;9.00;;
9547;SDS011;4812;51.992;8.648;2023-03-01T04:03:29;10.13;;;8.30;;
9547;SDS011;4812;51.992;8.648;2023-03-01T04:08:59;12.23;;;8.17;;
9547;SDS011;4812;51.992;8.648;2023-03-01T04:11:29;12.83;;;7.67;;
9547;SDS011;4812;51.992;8.648;2023-03-01T04:13:57;13.87;;;8.37;;
9547;SDS011;4812;51.992;8.648;2023-03-01T04:16:26;12.20;;;8.67;;
9547;SDS011;4812;51.992;8.648;2023-03-01T04:18:54;11.27;;;8.47;;
9547;SDS011;4812;51.992;8.648;2023-03-01T04:21:21;11.50;;;8.63;;
9547;SDS011;4812;51.992;8.648;2023-03-01T04:23:49;10.43;;;8.27;;
9547;SDS011;4812;51.992;8.648;2023-03-01T04:26:20;11.33;;;8.93;;
9547;SDS011;4812;51.992;8.648;2023-03-01T04:28:47;18.67;;;13.00;;
9547;SDS011;4812;51.992;8.648;2023-03-01T04:31:17;12.80;;;10.33;;
9547;SDS011;4812;51.992;8.648;2023-03-01T04:33:48;11.63;;;8.97;;
9547;SDS011;4812;51.992;8.648;2023-03-01T04:39:06;13.27;;;9.10;;
9547;SDS011;4812;51.992;8.648;2023-03-01T04:41:39;11.80;;;8.93;;
9547;SDS011;4812;51.992;8.648;2023-03-01T04:44:09;13.37;;;9.53;;
9547;SDS011;4812;51.992;8.648;2023-03-01T04:46:36;11.33;;;9.03;;
9547;SDS011;4812;51.992;8.648;2023-03-01T04:49:04;13.20;;;9.83;;
9547;SDS011;4812;51.992;8.648;2023-03-01T04:51:31;12.47;;;8.80;;
9547;SDS011;4812;51.992;8.648;2023-03-01T04:53:59;16.90;;;10.27;;
9547;SDS011;4812;51.992;8.648;2023-03-01T04:56:27;13.43;;;9.70;;
9547;SDS011;4812;51.992;8.648;2023-03-01T04:58:56;13.70;;;10.20;;
9547;SDS011;4812;51.992;8.648;2023-03-01T05:01:24;14.43;;;9.70;;
9547;SDS011;4812;51.992;8.648;2023-03-01T05:03:51;15.57;;;8.77;;
9547;SDS011;4812;51.992;8.648;2023-03-01T05:06:20;14.83;;;9.83;;
9547;SDS011;4812;51.992;8.648;2023-03-01T05:08:48;14.43;;;9.67;;
9547;SDS011;4812;51.992;8.648;2023-03-01T05:11:15;13.37;;;9.63;;
9547;SDS011;4812;51.992;8.648;2023-03-01T05:13:43;20.08;;;15.05;;
9547;SDS011;4812;51.992;8.648;2023-03-01T05:16:12;18.20;;;11.27;;
9547;SDS011;4812;51.992;8.648;2023-03-01T05:18:40;20.40;;;11.70;;
9547;SDS011;4812;51.992;8.648;2023-03-01T05:21:08;15.47;;;10.80;;
9547;SDS011;4812;51.992;8.648;2023-03-01T05:26:27;14.47;;;10.30;;
9547;SDS011;4812;51.992;8.648;2023-03-01T05:28:54;16.97;;;10.73;;
9547;SDS011;4812;51.992;8.648;2023-03-01T05:31:56;12.20;;;8.83;;
9547;SDS011;4812;51.992;8.648;2023-03-01T05:34:25;13.70;;;10.33;;
9547;SDS011;4812;51.992;8.648;2023-03-01T05:36:53;16.67;;;9.03;;
9547;SDS011;4812;51.992;8.648;2023-03-01T05:42:24;12.83;;;9.50;;
9547;SDS011;4812;51.992;8.648;2023-03-01T05:44:51;15.57;;;10.37;;
9547;SDS011;4812;51.992;8.648;2023-03-01T05:47:20;13.77;;;10.30;;
9547;SDS011;4812;51.992;8.648;2023-03-01T05:49:48;14.80;;;10.40;;
9547;SDS011;4812;51.992;8.648;2023-03-01T05:52:16;14.07;;;10.53;;
9547;SDS011;4812;51.992;8.648;2023-03-01T05:54:43;13.40;;;10.20;;
9547;SDS011;4812;51.992;8.648;2023-03-01T05:57:12;16.27;;;10.33;;
9547;SDS011;4812;51.992;8.648;2023-03-01T05:59:39;13.90;;;10.43;;
9547;SDS011;4812;51.992;8.648;2023-03-01T06:02:07;11.40;;;10.17;;
9547;SDS011;4812;51.992;8.648;2023-03-01T06:04:35;11.37;;;9.83;;
9547;SDS011;4812;51.992;8.648;2023-03-01T06:07:03;17.47;;;10.43;;
9547;SDS011;4812;51.992;8.648;2023-03-01T06:09:31;13.17;;;9.77;;
9547;SDS011;4812;51.992;8.648;2023-03-01T06:11:58;14.23;;;10.70;;
9547;SDS011;4812;51.992;8.648;2023-03-01T06:14:25;16.23;;;11.00;;
9547;SDS011;4812;51.992;8.648;2023-03-01T06:16:53;13.57;;;11.00;;
9547;SDS011;4812;51.992;8.648;2023-03-01T06:19:53;18.50;;;10.63;;
9547;SDS011;4812;51.992;8.648;2023-03-01T06:22:21;15.50;;;11.30;;
9547;SDS011;4812;51.992;8.648;2023-03-01T06:24:48;15.03;;;10.43;;
9547;SDS011;4812;51.992;8.648;2023-03-01T06:27:16;13.83;;;11.10;;
9547;SDS011;4812;51.992;8.648;2023-03-01T06:29:43;12.90;;;10.73;;
9547;SDS011;4812;51.992;8.648;2023-03-01T06:32:10;14.60;;;10.97;;
9547;SDS011;4812;51.992;8.648;2023-03-01T06:34:38;19.77;;;11.50;;
9547;SDS011;4812;51.992;8.648;2023-03-01T06:37:07;13.70;;;10.90;;
9547;SDS011;4812;51.992;8.648;2023-03-01T06:39:35;18.13;;;10.77;;
9547;SDS011;4812;51.992;8.648;2023-03-01T06:44:55;17.77;;;10.97;;
9547;SDS011;4812;51.992;8.648;2023-03-01T06:50:11;14.90;;;11.00;;
9547;SDS011;4812;51.992;8.648;2023-03-01T06:52:40;19.17;;;11.57;;
9547;SDS011;4812;51.992;8.648;2023-03-01T06:55:07;19.17;;;12.33;;
9547;SDS011;4812;51.992;8.648;2023-03-01T06:57:35;16.50;;;11.13;;
9547;SDS011;4812;51.992;8.648;2023-03-01T07:00:03;19.13;;;11.40;;
9547;SDS011;4812;51.992;8.648;2023-03-01T07:05:20;14.47;;;10.23;;
9547;SDS011;4812;51.992;8.648;2023-03-01T07:07:49;18.40;;;12.90;;
9547;SDS011;4812;51.992;8.648;2023-03-01T07:10:16;17.73;;;12.57;;
9547;SDS011;4812;51.992;8.648;2023-03-01T07:12:44;21.23;;;13.77;;
9547;SDS011;4812;51.992;8.648;2023-03-01T07:15:12;19.20;;;13.03;;
9547;SDS011;4812;51.992;8.648;2023-03-01T07:17:41;19.80;;;14.03;;
9547;SDS011;4812;51.992;8.648;2023-03-01T07:20:11;20.90;;;13.63;;
9547;SDS011;4812;51.992;8.648;2023-03-01T07:22:39;20.33;;;15.13;;
9547;SDS011;4812;51.992;8.648;2023-03-01T07:25:08;19.60;;;14.00;;
9547;SDS011;4812;51.992;8.648;2023-03-01T07:27:36;17.40;;;12.77;;
9547;SDS011;4812;51.992;8.648;2023-03-01T07:30:04;15.73;;;12.37;;
9547;SDS011;4812;51.992;8.648;2023-03-01T07:32:33;19.97;;;14.37;;
9547;SDS011;4812;51.992;8.648;2023-03-01T07:35:01;23.40;;;15.07;;
9547;SDS011;4812;51.992;8.648;2023-03-01T07:37:29;15.63;;;13.97;;
9547;SDS011;4812;51.992;8.648;2023-03-01T07:43:09;20.73;;;16.63;;
9547;SDS011;4812;51.992;8.648;2023-03-01T07:45:37;20.93;;;16.73;;
9547;SDS011;4812;51.992;8.648;2023-03-01T07:48:04;20.00;;;16.93;;
9547;SDS011;4812;51.992;8.648;2023-03-01T07:50:32;19.90;;;17.60;;
9547;SDS011;4812;51.992;8.648;2023-03-01T07:52:59;21.43;;;17.53;;
9547;SDS011;4812;51.992;8.648;2023-03-01T07:58:30;22.90;;;18.20;;
9547;SDS011;4812;51.992;8.648;2023-03-01T08:01:00;19.83;;;17.83;;
9547;SDS011;4812;51.992;8.648;2023-03-01T08:03:28;18.63;;;16.80;;
9547;SDS011;4812;51.992;8.648;2023-03-01T08:05:56;18.03;;;16.23;;
9547;SDS011;4812;51.992;8.648;2023-03-01T08:08:25;20.87;;;18.77;;
9547;SDS011;4812;51.992;8.648;2023-03-01T08:13:49;24.90;;;17.73;;
9547;SDS011;4812;51.992;8.648;2023-03-01T08:16:19;20.03;;;17.40;;
9547;SDS011;4812;51.992;8.648;2023-03-01T08:18:47;19.20;;;17.13;;
9547;SDS011;4812;51.992;8.648;2023-03-01T08:21:17;21.53;;;18.43;;
9547;SDS011;4812;51.992;8.648;2023-03-01T08:23:45;19.80;;;17.60;;
9547;SDS011;4812;51.992;8.648;2023-03-01T08:26:13;18.63;;;16.67;;
9547;SDS011;4812;51.992;8.648;2023-03-01T08:31:32;18.43;;;16.53;;
9547;SDS011;4812;51.992;8.648;2023-03-01T08:34:02;18.40;;;16.57;;
9547;SDS011;4812;51.992;8.648;2023-03-01T08:39:30;17.63;;;15.47;;
9547;SDS011;4812;51.992;8.648;2023-03-01T08:41:58;17.93;;;16.10;;
9547;SDS011;4812;51.992;8.648;2023-03-01T08:44:25;19.83;;;16.10;;
9547;SDS011;4812;51.992;8.648;2023-03-01T08:46:54;17.77;;;15.80;;
9547;SDS011;4812;51.992;8.648;2023-03-01T08:52:20;17.13;;;15.37;;
9547;SDS011;4812;51.992;8.648;2023-03-01T08:54:48;17.93;;;15.43;;
9547;SDS011;4812;51.992;8.648;2023-03-01T08:57:16;17.80;;;15.93;;
9547;SDS011;4812;51.992;8.648;2023-03-01T08:59:43;18.60;;;15.77;;
9547;SDS011;4812;51.992;8.648;2023-03-01T09:02:13;18.20;;;16.20;;
9547;SDS011;4812;51.992;8.648;2023-03-01T09:04:42;17.87;;;15.73;;
9547;SDS011;4812;51.992;8.648;2023-03-01T09:07:10;17.57;;;15.87;;
9547;SDS011;4812;51.992;8.648;2023-03-01T09:09:38;19.13;;;16.07;;
9547;SDS011;4812;51.992;8.648;2023-03-01T09:12:05;17.20;;;15.50;;
9547;SDS011;4812;51.992;8.648;2023-03-01T09:17:30;18.27;;;15.80;;
9547;SDS011;4812;51.992;8.648;2023-03-01T09:19:57;16.70;;;15.10;;
9547;SDS011;4812;51.992;8.648;2023-03-01T09:22:55;16.57;;;14.40;;
9547;SDS011;4812;51.992;8.648;2023-03-01T09:25:22;19.63;;;15.33;;
9547;SDS011;4812;51.992;8.648;2023-03-01T09:27:50;17.70;;;15.90;;
9547;SDS011;4812;51.992;8.648;2023-03-01T09:30:18;17.10;;;15.30;;
9547;SDS011;4812;51.992;8.648;2023-03-01T09:35:38;17.03;;;15.33;;
9547;SDS011;4812;51.992;8.648;2023-03-01T09:38:12;17.57;;;15.77;;
9547;SDS011;4812;51.992;8.648;2023-03-01T09:40:42;18.17;;;16.37;;
9547;SDS011;4812;51.992;8.648;2023-03-01T09:46:24;21.20;;;16.30;;
9547;SDS011;4812;51.992;8.648;2023-03-01T09:48:54;17.67;;;15.77;;
9547;SDS011;4812;51.992;8.648;2023-03-01T09:51:24;20.67;;;17.10;;
9547;SDS011;4812;51.992;8.648;2023-03-01T09:57:00;18.93;;;15.43;;
9547;SDS011;4812;51.992;8.648;2023-03-01T09:59:35;18.67;;;15.30;;
9547;SDS011;4812;51.992;8.648;2023-03-01T10:02:11;17.17;;;15.40;;
9547;SDS011;4812;51.992;8.648;2023-03-01T10:07:54;18.60;;;14.90;;
9547;SDS011;4812;51.992;8.648;2023-03-01T10:10:34;17.37;;;15.63;;
9547;SDS011;4812;51.992;8.648;2023-03-01T10:13:08;17.43;;;15.67;;
9547;SDS011;4812;51.992;8.648;2023-03-01T10:15:41;20.17;;;13.47;;
9547;SDS011;4812;51.992;8.648;2023-03-01T10:18:11;14.67;;;11.70;;
9547;SDS011;4812;51.992;8.648;2023-03-01T10:20:42;16.37;;;11.30;;
9547;SDS011;4812;51.992;8.648;2023-03-01T10:26:09;14.63;;;11.30;;
9547;SDS011;4812;51.992;8.648;2023-03-01T10:28:44;12.40;;;9.80;;
9547;SDS011;4812;51.992;8.648;2023-03-01T10:31:18;10.33;;;9.23;;
9547;SDS011;4812;51.992;8.648;2023-03-01T10:36:29;10.90;;;9.27;;
9547;SDS011;4812;51.992;8.648;2023-03-01T10:42:04;10.23;;;9.23;;
9547;SDS011;4812;51.992;8.648;2023-03-01T10:44:38;9.23;;;8.33;;
9547;SDS011;4812;51.992;8.648;2023-03-01T10:47:12;10.07;;;9.07;;
9547;SDS011;4812;51.992;8.648;2023-03-01T10:49:51;10.43;;;9.43;;
9547;SDS011;4812;51.992;8.648;2023-03-01T10:52:27;9.23;;;8.40;;
9547;SDS011;4812;51.992;8.648;2023-03-01T10:54:58;8.97;;;8.07;;
9547;SDS011;4812;51.992;8.648;2023-03-01T10:57:32;9.60;;;8.70;;
9547;SDS011;4812;51.992;8.648;2023-03-01T11:02:38;10.80;;;9.70;;
9547;SDS011;4812;51.992;8.648;2023-03-01T11:05:13;10.27;;;9.27;;
9547;SDS011;4812;51.992;8.648;2023-03-01T11:07:48;13.17;;;10.03;;
9547;SDS011;4812;51.992;8.648;2023-03-01T11:10:18;11.10;;;10.00;;
9547;SDS011;4812;51.992;8.648;2023-03-01T11:12:48;11.93;;;10.83;;
9547;SDS011;4812;51.992;8.648;2023-03-01T11:15:23;11.33;;;10.37;;
9547;SDS011;4812;51.992;8.648;2023-03-01T11:17:53;13.37;;;10.60;;
9547;SDS011;4812;51.992;8.648;2023-03-01T11:20:34;11.53;;;10.37;;
9547;SDS011;4812;51.992;8.648;2023-03-01T11:23:04;11.83;;;10.83;;
9547;SDS011;4812;51.992;8.648;2023-03-01T11:25:34;11.57;;;10.40;;
9547;SDS011;4812;51.992;8.648;2023-03-01T11:28:05;11.70;;;10.60;;
9547;SDS011;4812;51.992;8.648;2023-03-01T11:30:36;12.63;;;11.37;;
9547;SDS011;4812;51.992;8.648;2023-03-01T11:33:11;11.97;;;10.90;;
9547;SDS011;4812;51.992;8.648;2023-03-01T11:35:44;11.40;;;10.47;;
9547;SDS011;4812;51.992;8.648;2023-03-01T11:38:16;13.00;;;11.13;;
9547;SDS011;4812;51.992;8.648;2023-03-01T11:40:48;11.83;;;10.83;;
9547;SDS011;4812;51.992;8.648;2023-03-01T11:43:25;12.23;;;10.90;;
9547;SDS011;4812;51.992;8.648;2023-03-01T11:46:02;11.77;;;10.87;;
9547;SDS011;4812;51.992;8.648;2023-03-01T11:48:46;12.23;;;11.23;;
9547;SDS011;4812;51.992;8.648;2023-03-01T11:51:20;10.87;;;10.07;;
9547;SDS011;4812;51.992;8.648;2023-03-01T11:56:42;11.63;;;10.60;;
9547;SDS011;4812;51.992;8.648;2023-03-01T11:59:18;10.93;;;9.93;;
9547;SDS011;4812;51.992;8.648;2023-03-01T12:02:23;10.70;;;9.73;;
9547;SDS011;4812;51.992;8.648;2023-03-01T12:05:04;10.90;;;9.80;;
9547;SDS011;4812;51.992;8.648;2023-03-01T12:07:54;10.37;;;9.63;;
9547;SDS011;4812;51.992;8.648;2023-03-01T12:10:25;10.80;;;9.80;;
9547;SDS011;4812;51.992;8.648;2023-03-01T12:12:58;10.60;;;9.60;;
9547;SDS011;4812;51.992;8.648;2023-03-01T12:15:37;10.00;;;9.17;;
9547;SDS011;4812;51.992;8.648;2023-03-01T12:21:14;11.43;;;10.33;;
9547;SDS011;4812;51.992;8.648;2023-03-01T12:24:10;10.43;;;9.63;;
9547;SDS011;4812;51.992;8.648;2023-03-01T12:26:52;10.70;;;9.73;;
9547;SDS011;4812;51.992;8.648;2023-03-01T12:29:25;11.00;;;9.90;;
9547;SDS011;4812;51.992;8.648;2023-03-01T12:34:28;11.30;;;10.37;;
9547;SDS011;4812;51.992;8.648;2023-03-01T12:40:03;10.90;;;9.97;;
9547;SDS011;4812;51.992;8.648;2023-03-01T12:42:45;11.37;;;10.23;;
9547;SDS011;4812;51.992;8.648;2023-03-01T12:45:25;9.90;;;9.10;;
9547;SDS011;4812;51.992;8.648;2023-03-01T12:48:05;10.40;;;9.50;;
9547;SDS011;4812;51.992;8.648;2023-03-01T12:50:42;10.70;;;9.73;;
9547;SDS011;4812;51.992;8.648;2023-03-01T12:53:17;11.63;;;10.63;;
9547;SDS011;4812;51.992;8.648;2023-03-01T12:55:50;11.53;;;10.40;;
9547;SDS011;4812;51.992;8.648;2023-03-01T12:58:22;10.80;;;9.80;;
9547;SDS011;4812;51.992;8.648;2023-03-01T13:01:08;11.97;;;10.97;;
9547;SDS011;4812;51.992;8.648;2023-03-01T13:03:51;12.40;;;11.40;;
9547;SDS011;4812;51.992;8.648;2023-03-01T13:06:29;12.33;;;11.40;;
9547;SDS011;4812;51.992;8.648;2023-03-01T13:09:11;12.83;;;11.73;;
9547;SDS011;4812;51.992;8.648;2023-03-01T13:11:45;11.80;;;10.97;;
9547;SDS011;4812;51.992;8.648;2023-03-01T13:17:03;11.97;;;10.97;;
9547;SDS011;4812;51.992;8.648;2023-03-01T13:19:30;12.17;;;11.27;;
9547;SDS011;4812;51.992;8.648;2023-03-01T13:22:24;11.90;;;11.00;;
9547;SDS011;4812;51.992;8.648;2023-03-01T13:27:36;11.67;;;10.77;;
9547;SDS011;4812;51.992;8.648;2023-03-01T13:30:11;11.40;;;10.60;;
9547;SDS011;4812;51.992;8.648;2023-03-01T13:36:02;12.00;;;11.10;;
9547;SDS011;4812;51.992;8.648;2023-03-01T13:38:38;11.63;;;10.83;;
9547;SDS011;4812;51.992;8.648;2023-03-01T13:41:13;11.90;;;11.00;;
9547;SDS011;4812;51.992;8.648;2023-03-01T13:43:41;12.17;;;11.27;;
9547;SDS011;4812;51.992;8.648;2023-03-01T13:46:11;12.27;;;11.37;;
9547;SDS011;4812;51.992;8.648;2023-03-01T13:51:46;12.50;;;11.40;;
9547;SDS011;4812;51.992;8.648;2023-03-01T13:54:15;13.90;;;12.80;;
9547;SDS011;4812;51.992;8.648;2023-03-01T13:56:45;11.57;;;10.67;;
9547;SDS011;4812;51.992;8.648;2023-03-01T13:59:13;11.23;;;10.30;;
9547;SDS011;4812;51.992;8.648;2023-03-01T14:01:41;10.97;;;10.17;;
9547;SDS011;4812;51.992;8.648;2023-03-01T14:04:18;12.23;;;11.33;;
9547;SDS011;4812;51.992;8.648;2023-03-01T14:06:47;11.10;;;10.23;;
9547;SDS011;4812;51.992;8.648;2023-03-01T14:09:17;11.70;;;10.90;;
9547;SDS011;4812;51.992;8.648;2023-03-01T14:14:42;11.17;;;10.37;;
9547;SDS011;4812;51.992;8.648;2023-03-01T14:20:12;11.23;;;10.43;;
9547;SDS011;4812;51.992;8.648;2023-03-01T15:08:35;10.93;;;10.03;;
9547;SDS011;4812;51.992;8.648;2023-03-01T15:11:04;11.23;;;10.33;;
9547;SDS011;4812;51.992;8.648;2023-03-01T15:13:43;11.33;;;10.53;;
9547;SDS011;4812;51.992;8.648;2023-03-01T15:16:12;11.07;;;10.07;;
9547;SDS011;4812;51.992;8.648;2023-03-01T15:18:43;11.20;;;10.40;;
9547;SDS011;4812;51.992;8.648;2023-03-01T15:21:16;11.50;;;10.70;;
9547;SDS011;4812;51.992;8.648;2023-03-01T15:23:49;11.47;;;10.50;;
9547;SDS011;4812;51.992;8.648;2023-03-01T15:26:23;11.00;;;10.20;;
9547;SDS011;4812;51.992;8.648;2023-03-01T15:28:53;10.50;;;9.60;;
9547;SDS011;4812;51.992;8.648;2023-03-01T15:34:22;8.40;;;7.60;;
9547;SDS011;4812;51.992;8.648;2023-03-01T15:36:51;8.57;;;7.77;;
9547;SDS011;4812;51.992;8.648;2023-03-01T15:39:35;7.63;;;6.93;;
9547;SDS011;4812;51.992;8.648;2023-03-01T15:42:05;8.40;;;7.13;;
9547;SDS011;4812;51.992;8.648;2023-03-01T15:44:35;6.63;;;6.03;;
9547;SDS011;4812;51.992;8.648;2023-03-01T15:47:22;7.53;;;6.20;;
9547;SDS011;4812;51.992;8.648;2023-03-01T15:49:51;6.93;;;6.33;;
9547;SDS011;4812;51.992;8.648;2023-03-01T15:52:22;6.73;;;5.93;;
9547;SDS011;4812;51.992;8.648;2023-03-01T15:57:45;7.30;;;6.60;;
9547;SDS011;4812;51.992;8.648;2023-03-01T16:02:41;6.83;;;6.23;;
9547;SDS011;4812;51.992;8.648;2023-03-01T16:05:12;7.07;;;6.40;;
9547;SDS011;4812;51.992;8.648;2023-03-01T16:10:48;7.10;;;6.40;;
9547;SDS011;4812;51.992;8.648;2023-03-01T16:13:18;6.90;;;6.20;;
9547;SDS011;4812;51.992;8.648;2023-03-01T16:15:46;8.23;;;6.50;;
9547;SDS011;4812;51.992;8.648;2023-03-01T16:18:14;9.87;;;7.33;;
9547;SDS011;4812;51.992;8.648;2023-03-01T16:23:36;7.33;;;6.63;;
9547;SDS011;4812;51.992;8.648;2023-03-01T16:26:03;8.73;;;7.17;;
9547;SDS011;4812;51.992;8.648;2023-03-01T16:29:03;7.57;;;6.87;;
9547;SDS011;4812;51.992;8.648;2023-03-01T16:31:31;9.47;;;7.47;;
9547;SDS011;4812;51.992;8.648;2023-03-01T16:33:59;8.13;;;7.33;;
9547;SDS011;4812;51.992;8.648;2023-03-01T16:36:27;9.43;;;7.67;;
9547;SDS011;4812;51.992;8.648;2023-03-01T16:41:59;10.20;;;7.73;;
9547;SDS011;4812;51.992;8.648;2023-03-01T16:44:28;7.90;;;7.20;;
9547;SDS011;4812;51.992;8.648;2023-03-01T16:46:56;9.10;;;8.20;;
9547;SDS011;4812;51.992;8.648;2023-03-01T16:49:23;10.13;;;7.53;;
9547;SDS011;4812;51.992;8.648;2023-03-01T16:54:49;8.23;;;6.57;;
9547;SDS011;4812;51.992;8.648;2023-03-01T16:57:17;9.40;;;7.70;;
9547;SDS011;4812;51.992;8.648;2023-03-01T16:59:52;7.90;;;6.90;;
9547;SDS011;4812;51.992;8.648;2023-03-01T17:02:20;8.57;;;7.50;;
9547;SDS011;4812;51.992;8.648;2023-03-01T17:07:45;8.23;;;7.13;;
9547;SDS011;4812;51.992;8.648;2023-03-01T17:10:13;12.87;;;7.63;;
9547;SDS011;4812;51.992;8.648;2023-03-01T17:12:41;8.43;;;7.63;;
9547;SDS011;4812;51.992;8.648;2023-03-01T17:15:10;11.50;;;7.27;;
9547;SDS011;4812;51.992;8.648;2023-03-01T17:20:36;8.83;;;7.27;;
9547;SDS011;4812;51.992;8.648;2023-03-01T17:23:04;10.03;;;7.60;;
9547;SDS011;4812;51.992;8.648;2023-03-01T17:25:32;8.83;;;7.03;;
9547;SDS011;4812;51.992;8.648;2023-03-01T17:27:59;7.83;;;7.03;;
9547;SDS011;4812;51.992;8.648;2023-03-01T17:33:21;7.47;;;6.77;;
9547;SDS011;4812;51.992;8.648;2023-03-01T17:38:51;8.80;;;7.30;;
9547;SDS011;4812;51.992;8.648;2023-03-01T17:41:19;7.97;;;7.27;;
9547;SDS011;4812;51.992;8.648;2023-03-01T17:43:48;12.63;;;9.13;;
9547;SDS011;4812;51.992;8.648;2023-03-01T17:46:16;10.63;;;8.33;;
9547;SDS011;4812;51.992;8.648;2023-03-01T17:51:34;12.93;;;9.80;;
9547;SDS011;4812;51.992;8.648;2023-03-01T17:54:03;17.27;;;10.87;;
9547;SDS011;4812;51.992;8.648;2023-03-01T17:56:31;14.43;;;10.30;;
9547;SDS011;4812;51.992;8.648;2023-03-01T17:58:59;12.90;;;9.07;;
9547;SDS011;4812;51.992;8.648;2023-03-01T18:01:26;8.90;;;7.53;;
9547;SDS011;4812;51.992;8.648;2023-03-01T18:03:54;9.67;;;8.10;;
9547;SDS011;4812;51.992;8.648;2023-03-01T18:09:08;12.73;;;10.10;;
9547;SDS011;4812;51.992;8.648;2023-03-01T18:14:39;11.57;;;9.07;;
9547;SDS011;4812;51.992;8.648;2023-03-01T18:17:07;11.80;;;8.83;;
9547;SDS011;4812;51.992;8.648;2023-03-01T18:19:37;12.10;;;8.73;;
9547;SDS011;4812;51.992;8.648;2023-03-01T18:22:06;10.10;;;8.83;;
9547;SDS011;4812;51.992;8.648;2023-03-01T18:24:36;10.83;;;8.63;;
9547;SDS011;4812;51.992;8.648;2023-03-01T18:27:04;9.77;;;8.37;;
9547;SDS011;4812;51.992;8.648;2023-03-01T18:32:20;9.37;;;8.10;;
9547;SDS011;4812;51.992;8.648;2023-03-01T18:34:49;11.93;;;8.07;;
9547;SDS011;4812;51.992;8.648;2023-03-01T18:37:16;9.77;;;8.17;;
9547;SDS011;4812;51.992;8.648;2023-03-01T18:39:45;9.97;;;8.43;;
9547;SDS011;4812;51.992;8.648;2023-03-01T18:45:06;9.90;;;8.47;;
9547;SDS011;4812;51.992;8.648;2023-03-01T18:47:34;8.40;;;7.40;;
9547;SDS011;4812;51.992;8.648;2023-03-01T18:52:51;11.93;;;9.03;;
9547;SDS011;4812;51.992;8.648;2023-03-01T18:55:20;10.70;;;8.30;;